sensor_id;sensor_type;location;lat;lon;timestamp;temperature;humidity
10702;DHT22;5402;50.004;8.246;2023-04-06T00:00:22;2.40;99.90
10702;DHT22;5402;50.004;8.246;2023-04-06T00:02:50;2.40;99.90
10702;DHT22;5402;50.004;8.246;2023-04-06T00:05:18;2.40;99.90
10702;DHT22;5402;50.004;8.246;2023-04-06T00:07:45;2.50;99.90
10702;DHT22;5402;50.004;8.246;2023-04-06T00:10:12;2.50;99.90
10702;DHT22;5402;50.004;8.246;2023-04-06T00:12:38;2.50;99.90
10702;DHT22;5402;50.004;8.246;2023-04-06T00:15:06;2.40;99.90
10702;DHT22;5402;50.004;8.246;2023-04-06T00:17:33;2.40;99.90
10702;DHT22;5402;50.004;8.246;2023-04-06T00:20:01;2.30;99.90
10702;DHT22;5402;50.004;8.246;2023-04-06T00:22:29;2.30;99.90
10702;DHT22;5402;50.004;8.246;2023-04-06T00:24:56;2.30;99.90
10702;DHT22;5402;50.004;8.246;2023-04-06T00:27:23;2.10;99.90
10702;DHT22;5402;50.004;8.246;2023-04-06T00:29:50;2.10;99.90
10702;DHT22;5402;50.004;8.246;2023-04-06T00:32:16;2.10;99.90
10702;DHT22;5402;50.004;8.246;2023-04-06T00:34:43;2.10;99.90
10702;DHT22;5402;50.004;8.246;2023-04-06T00:37:12;2.00;99.90
10702;DHT22;5402;50.004;8.246;2023-04-06T00:39:38;2.00;99.90
10702;DHT22;5402;50.004;8.246;2023-04-06T00:42:10;1.90;99.90
10702;DHT22;5402;50.004;8.246;2023-04-06T00:44:38;1.80;99.90
10702;DHT22;5402;50.004;8.246;2023-04-06T00:47:04;1.70;99.90
10702;DHT22;5402;50.004;8.246;2023-04-06T00:49:32;1.70;99.90
10702;DHT22;5402;50.004;8.246;2023-04-06T00:51:59;1.70;99.90
10702;DHT22;5402;50.004;8.246;2023-04-06T00:54:28;1.60;99.90
10702;DHT22;5402;50.004;8.246;2023-04-06T00:56:55;1.70;99.90
10702;DHT22;5402;50.004;8.246;2023-04-06T00:59:22;1.70;99.90
10702;DHT22;5402;50.004;8.246;2023-04-06T01:01:49;1.60;99.90
10702;DHT22;5402;50.004;8.246;2023-04-06T01:04:15;1.60;99.90
10702;DHT22;5402;50.004;8.246;2023-04-06T01:06:42;1.50;99.90
10702;DHT22;5402;50.004;8.246;2023-04-06T01:09:09;1.50;99.90
10702;DHT22;5402;50.004;8.246;2023-04-06T01:11:37;1.50;99.90
10702;DHT22;5402;50.004;8.246;2023-04-06T01:14:04;1.50;99.90
10702;DHT22;5402;50.004;8.246;2023-04-06T01:16:30;1.50;99.90
10702;DHT22;5402;50.004;8.246;2023-04-06T01:18:57;1.50;99.90
10702;DHT22;5402;50.004;8.246;2023-04-06T01:21:24;1.40;99.90
10702;DHT22;5402;50.004;8.246;2023-04-06T01:23:53;1.40;99.90
10702;DHT22;5402;50.004;8.246;2023-04-06T01:26:20;1.40;99.90
10702;DHT22;5402;50.004;8.246;2023-04-06T01:28:46;1.40;99.90
10702;DHT22;5402;50.004;8.246;2023-04-06T01:31:13;1.40;99.90
10702;DHT22;5402;50.004;8.246;2023-04-06T01:33:40;1.30;99.90
10702;DHT22;5402;50.004;8.246;2023-04-06T01:36:07;1.30;99.90
10702;DHT22;5402;50.004;8.246;2023-04-06T01:38:34;1.30;99.90
10702;DHT22;5402;50.004;8.246;2023-04-06T01:41:02;1.20;99.90
10702;DHT22;5402;50.004;8.246;2023-04-06T01:43:30;1.10;99.90
10702;DHT22;5402;50.004;8.246;2023-04-06T01:45:57;1.10;99.90
10702;DHT22;5402;50.004;8.246;2023-04-06T01:48:23;1.10;99.90
10702;DHT22;5402;50.004;8.246;2023-04-06T01:50:50;1.10;99.90
10702;DHT22;5402;50.004;8.246;2023-04-06T01:53:17;1.10;99.90
10702;DHT22;5402;50.004;8.246;2023-04-06T01:55:45;1.00;99.90
10702;DHT22;5402;50.004;8.246;2023-04-06T01:58:13;0.90;99.90
10702;DHT22;5402;50.004;8.246;2023-04-06T02:00:40;0.90;99.90
10702;DHT22;5402;50.004;8.246;2023-04-06T02:03:06;1.00;99.90
10702;DHT22;5402;50.004;8.246;2023-04-06T02:05:34;1.00;99.90
10702;DHT22;5402;50.004;8.246;2023-04-06T02:08:03;1.00;99.90
10702;DHT22;5402;50.004;8.246;2023-04-06T02:10:30;1.00;99.90
10702;DHT22;5402;50.004;8.246;2023-04-06T02:12:57;1.00;99.90
10702;DHT22;5402;50.004;8.246;2023-04-06T02:15:25;0.90;99.90
10702;DHT22;5402;50.004;8.246;2023-04-06T02:17:51;0.90;99.90
10702;DHT22;5402;50.004;8.246;2023-04-06T02:20:18;0.90;99.90
10702;DHT22;5402;50.004;8.246;2023-04-06T02:22:45;0.90;99.90
10702;DHT22;5402;50.004;8.246;2023-04-06T02:25:12;0.70;99.90
10702;DHT22;5402;50.004;8.246;2023-04-06T02:27:39;0.70;99.90
10702;DHT22;5402;50.004;8.246;2023-04-06T02:30:07;0.70;99.90
10702;DHT22;5402;50.004;8.246;2023-04-06T02:32:35;0.60;99.90
10702;DHT22;5402;50.004;8.246;2023-04-06T02:35:02;0.60;99.90
10702;DHT22;5402;50.004;8.246;2023-04-06T02:37:29;0.60;99.90
10702;DHT22;5402;50.004;8.246;2023-04-06T02:39:55;0.60;99.90
10702;DHT22;5402;50.004;8.246;2023-04-06T02:42:22;0.60;99.90
10702;DHT22;5402;50.004;8.246;2023-04-06T02:44:50;0.60;99.90
10702;DHT22;5402;50.004;8.246;2023-04-06T02:47:16;0.60;99.90
10702;DHT22;5402;50.004;8.246;2023-04-06T02:49:44;0.60;99.90
10702;DHT22;5402;50.004;8.246;2023-04-06T02:52:11;0.50;99.90
10702;DHT22;5402;50.004;8.246;2023-04-06T02:54:38;0.50;99.90
10702;DHT22;5402;50.004;8.246;2023-04-06T02:57:05;0.50;99.90
10702;DHT22;5402;50.004;8.246;2023-04-06T02:59:32;0.50;99.90
10702;DHT22;5402;50.004;8.246;2023-04-06T03:01:58;0.50;99.90
10702;DHT22;5402;50.004;8.246;2023-04-06T03:04:25;0.50;99.90
10702;DHT22;5402;50.004;8.246;2023-04-06T03:06:54;0.40;99.90
10702;DHT22;5402;50.004;8.246;2023-04-06T03:09:21;0.50;99.90
10702;DHT22;5402;50.004;8.246;2023-04-06T03:11:48;0.50;99.90
10702;DHT22;5402;50.004;8.246;2023-04-06T03:14:15;0.50;99.90
10702;DHT22;5402;50.004;8.246;2023-04-06T03:16:42;0.50;99.90
10702;DHT22;5402;50.004;8.246;2023-04-06T03:19:09;0.40;99.90
10702;DHT22;5402;50.004;8.246;2023-04-06T03:21:38;0.50;99.90
10702;DHT22;5402;50.004;8.246;2023-04-06T03:24:09;0.40;99.90
10702;DHT22;5402;50.004;8.246;2023-04-06T03:26:37;0.40;99.90
10702;DHT22;5402;50.004;8.246;2023-04-06T03:29:04;0.30;99.90
10702;DHT22;5402;50.004;8.246;2023-04-06T03:31:31;0.30;99.90
10702;DHT22;5402;50.004;8.246;2023-04-06T03:33:57;0.40;99.90
10702;DHT22;5402;50.004;8.246;2023-04-06T03:36:24;0.20;99.90
10702;DHT22;5402;50.004;8.246;2023-04-06T03:38:52;0.20;99.90
10702;DHT22;5402;50.004;8.246;2023-04-06T03:41:20;0.20;99.90
10702;DHT22;5402;50.004;8.246;2023-04-06T03:43:47;0.10;99.90
10702;DHT22;5402;50.004;8.246;2023-04-06T03:46:14;0.10;99.90
10702;DHT22;5402;50.004;8.246;2023-04-06T03:48:40;0.10;99.90
10702;DHT22;5402;50.004;8.246;2023-04-06T03:51:07;0.20;99.90
10702;DHT22;5402;50.004;8.246;2023-04-06T03:53:34;0.10;99.90
10702;DHT22;5402;50.004;8.246;2023-04-06T03:56:02;0.10;99.90
10702;DHT22;5402;50.004;8.246;2023-04-06T03:58:30;0.10;99.90
10702;DHT22;5402;50.004;8.246;2023-04-06T04:00:57;0.10;99.90
10702;DHT22;5402;50.004;8.246;2023-04-06T04:03:23;0.10;99.90
10702;DHT22;5402;50.004;8.246;2023-04-06T04:05:52;0.10;99.90
10702;DHT22;5402;50.004;8.246;2023-04-06T04:08:20;0.10;99.90
10702;DHT22;5402;50.004;8.246;2023-04-06T04:10:47;0.10;99.90
10702;DHT22;5402;50.004;8.246;2023-04-06T04:13:13;0.10;99.90
10702;DHT22;5402;50.004;8.246;2023-04-06T04:15:41;0.10;99.90
10702;DHT22;5402;50.004;8.246;2023-04-06T04:18:08;0.00;99.90
10702;DHT22;5402;50.004;8.246;2023-04-06T04:20:35;0.00;99.90
10702;DHT22;5402;50.004;8.246;2023-04-06T04:23:01;0.00;99.90
10702;DHT22;5402;50.004;8.246;2023-04-06T04:25:28;0.00;99.90
10702;DHT22;5402;50.004;8.246;2023-04-06T04:27:55;0.10;99.90
10702;DHT22;5402;50.004;8.246;2023-04-06T04:30:22;0.10;99.90
10702;DHT22;5402;50.004;8.246;2023-04-06T04:32:50;0.10;99.90
10702;DHT22;5402;50.004;8.246;2023-04-06T04:35:17;0.00;99.90
10702;DHT22;5402;50.004;8.246;2023-04-06T04:37:44;-0.10;99.90
10702;DHT22;5402;50.004;8.246;2023-04-06T04:40:11;-0.10;99.90
10702;DHT22;5402;50.004;8.246;2023-04-06T04:42:38;-0.10;99.90
10702;DHT22;5402;50.004;8.246;2023-04-06T04:45:05;-0.10;99.90
10702;DHT22;5402;50.004;8.246;2023-04-06T04:47:32;-0.10;99.90
10702;DHT22;5402;50.004;8.246;2023-04-06T04:50:00;-0.20;99.90
10702;DHT22;5402;50.004;8.246;2023-04-06T04:52:26;-0.20;99.90
10702;DHT22;5402;50.004;8.246;2023-04-06T04:54:53;-0.10;99.90
10702;DHT22;5402;50.004;8.246;2023-04-06T04:57:20;-0.10;99.90
10702;DHT22;5402;50.004;8.246;2023-04-06T04:59:47;-0.10;99.90
10702;DHT22;5402;50.004;8.246;2023-04-06T05:02:14;-0.10;99.90
10702;DHT22;5402;50.004;8.246;2023-04-06T05:04:41;-0.10;99.90
10702;DHT22;5402;50.004;8.246;2023-04-06T05:07:09;-0.10;99.90
10702;DHT22;5402;50.004;8.246;2023-04-06T05:09:36;0.00;99.90
10702;DHT22;5402;50.004;8.246;2023-04-06T05:12:03;0.00;99.90
10702;DHT22;5402;50.004;8.246;2023-04-06T05:14:29;0.00;99.90
10702;DHT22;5402;50.004;8.246;2023-04-06T05:16:59;0.00;99.90
10702;DHT22;5402;50.004;8.246;2023-04-06T05:19:26;0.10;99.90
10702;DHT22;5402;50.004;8.246;2023-04-06T05:21:52;0.10;99.90
10702;DHT22;5402;50.004;8.246;2023-04-06T05:24:21;0.10;99.90
10702;DHT22;5402;50.004;8.246;2023-04-06T05:26:48;0.10;99.90
10702;DHT22;5402;50.004;8.246;2023-04-06T05:29:15;0.20;99.90
10702;DHT22;5402;50.004;8.246;2023-04-06T05:31:42;0.20;99.90
10702;DHT22;5402;50.004;8.246;2023-04-06T05:34:09;0.30;99.90
10702;DHT22;5402;50.004;8.246;2023-04-06T05:36:36;0.30;99.90
10702;DHT22;5402;50.004;8.246;2023-04-06T05:39:03;0.40;99.90
10702;DHT22;5402;50.004;8.246;2023-04-06T05:41:31;0.50;99.90
10702;DHT22;5402;50.004;8.246;2023-04-06T05:43:58;0.50;99.90
10702;DHT22;5402;50.004;8.246;2023-04-06T05:46:24;0.60;99.90
10702;DHT22;5402;50.004;8.246;2023-04-06T05:48:51;0.60;99.90
10702;DHT22;5402;50.004;8.246;2023-04-06T05:51:18;0.70;99.90
10702;DHT22;5402;50.004;8.246;2023-04-06T05:53:44;0.70;99.90
10702;DHT22;5402;50.004;8.246;2023-04-06T05:56:12;0.80;99.90
10702;DHT22;5402;50.004;8.246;2023-04-06T05:58:41;0.90;99.90
10702;DHT22;5402;50.004;8.246;2023-04-06T06:01:07;0.90;99.90
10702;DHT22;5402;50.004;8.246;2023-04-06T06:03:35;1.00;99.90
10702;DHT22;5402;50.004;8.246;2023-04-06T06:06:02;1.10;99.90
10702;DHT22;5402;50.004;8.246;2023-04-06T06:08:30;1.20;99.90
10702;DHT22;5402;50.004;8.246;2023-04-06T06:10:56;1.30;99.90
10702;DHT22;5402;50.004;8.246;2023-04-06T06:13:23;1.40;99.90
10702;DHT22;5402;50.004;8.246;2023-04-06T06:15:51;1.50;99.90
10702;DHT22;5402;50.004;8.246;2023-04-06T06:18:18;1.70;99.90
10702;DHT22;5402;50.004;8.246;2023-04-06T06:20:45;1.70;99.90
10702;DHT22;5402;50.004;8.246;2023-04-06T06:23:12;1.80;99.90
10702;DHT22;5402;50.004;8.246;2023-04-06T06:25:39;1.90;99.90
10702;DHT22;5402;50.004;8.246;2023-04-06T06:28:05;1.90;99.90
10702;DHT22;5402;50.004;8.246;2023-04-06T06:30:32;2.00;99.90
10702;DHT22;5402;50.004;8.246;2023-04-06T06:33:00;2.20;99.90
10702;DHT22;5402;50.004;8.246;2023-04-06T06:35:27;2.30;99.90
10702;DHT22;5402;50.004;8.246;2023-04-06T06:37:54;2.30;99.90
10702;DHT22;5402;50.004;8.246;2023-04-06T06:40:21;2.50;99.90
10702;DHT22;5402;50.004;8.246;2023-04-06T06:42:49;2.60;99.90
10702;DHT22;5402;50.004;8.246;2023-04-06T06:45:16;2.70;99.90
10702;DHT22;5402;50.004;8.246;2023-04-06T06:47:43;2.80;99.90
10702;DHT22;5402;50.004;8.246;2023-04-06T06:50:12;2.90;99.90
10702;DHT22;5402;50.004;8.246;2023-04-06T06:52:39;3.00;99.90
10702;DHT22;5402;50.004;8.246;2023-04-06T06:55:07;3.10;99.90
10702;DHT22;5402;50.004;8.246;2023-04-06T06:57:34;3.20;99.90
10702;DHT22;5402;50.004;8.246;2023-04-06T07:00:01;3.20;99.90
10702;DHT22;5402;50.004;8.246;2023-04-06T07:02:29;3.30;99.90
10702;DHT22;5402;50.004;8.246;2023-04-06T07:04:55;3.40;99.90
10702;DHT22;5402;50.004;8.246;2023-04-06T07:07:23;3.40;99.90
10702;DHT22;5402;50.004;8.246;2023-04-06T07:09:50;3.50;99.90
10702;DHT22;5402;50.004;8.246;2023-04-06T07:12:17;3.60;99.90
10702;DHT22;5402;50.004;8.246;2023-04-06T07:14:44;3.70;99.90
10702;DHT22;5402;50.004;8.246;2023-04-06T07:17:10;3.70;99.90
10702;DHT22;5402;50.004;8.246;2023-04-06T07:19:37;3.70;99.90
10702;DHT22;5402;50.004;8.246;2023-04-06T07:22:04;3.80;99.90
10702;DHT22;5402;50.004;8.246;2023-04-06T07:24:32;3.80;99.90
10702;DHT22;5402;50.004;8.246;2023-04-06T07:27:01;3.90;99.90
10702;DHT22;5402;50.004;8.246;2023-04-06T07:29:28;3.90;99.90
10702;DHT22;5402;50.004;8.246;2023-04-06T07:31:55;4.00;99.90
10702;DHT22;5402;50.004;8.246;2023-04-06T07:34:22;4.00;99.90
10702;DHT22;5402;50.004;8.246;2023-04-06T07:36:48;4.10;99.90
10702;DHT22;5402;50.004;8.246;2023-04-06T07:39:15;4.20;99.90
10702;DHT22;5402;50.004;8.246;2023-04-06T07:41:43;4.30;99.90
10702;DHT22;5402;50.004;8.246;2023-04-06T07:44:10;4.40;99.90
10702;DHT22;5402;50.004;8.246;2023-04-06T07:46:37;4.50;99.90
10702;DHT22;5402;50.004;8.246;2023-04-06T07:49:03;4.60;99.90
10702;DHT22;5402;50.004;8.246;2023-04-06T07:51:30;4.70;99.90
10702;DHT22;5402;50.004;8.246;2023-04-06T07:53:57;4.80;99.90
10702;DHT22;5402;50.004;8.246;2023-04-06T07:56:24;5.00;99.90
10702;DHT22;5402;50.004;8.246;2023-04-06T07:58:52;5.10;99.90
10702;DHT22;5402;50.004;8.246;2023-04-06T08:01:21;5.40;99.90
10702;DHT22;5402;50.004;8.246;2023-04-06T08:03:47;6.00;99.90
10702;DHT22;5402;50.004;8.246;2023-04-06T08:06:15;7.60;99.90
10702;DHT22;5402;50.004;8.246;2023-04-06T08:08:43;8.50;99.90
10702;DHT22;5402;50.004;8.246;2023-04-06T08:11:09;9.30;99.90
10702;DHT22;5402;50.004;8.246;2023-04-06T08:13:36;9.70;99.90
10702;DHT22;5402;50.004;8.246;2023-04-06T08:16:05;9.70;99.90
10702;DHT22;5402;50.004;8.246;2023-04-06T08:18:32;9.50;99.90
10702;DHT22;5402;50.004;8.246;2023-04-06T08:20:58;8.90;99.90
10702;DHT22;5402;50.004;8.246;2023-04-06T08:23:25;8.40;99.90
10702;DHT22;5402;50.004;8.246;2023-04-06T08:25:52;8.10;99.90
10702;DHT22;5402;50.004;8.246;2023-04-06T08:28:19;7.90;99.90
10702;DHT22;5402;50.004;8.246;2023-04-06T08:30:46;7.80;99.90
10702;DHT22;5402;50.004;8.246;2023-04-06T08:33:14;7.60;99.90
10702;DHT22;5402;50.004;8.246;2023-04-06T08:35:41;7.60;99.90
10702;DHT22;5402;50.004;8.246;2023-04-06T08:38:08;7.70;99.90
10702;DHT22;5402;50.004;8.246;2023-04-06T08:40:36;7.80;99.90
10702;DHT22;5402;50.004;8.246;2023-04-06T08:43:06;8.00;99.90
10702;DHT22;5402;50.004;8.246;2023-04-06T08:45:34;8.00;99.90
10702;DHT22;5402;50.004;8.246;2023-04-06T08:48:01;8.10;99.90
10702;DHT22;5402;50.004;8.246;2023-04-06T08:50:32;8.30;99.90
10702;DHT22;5402;50.004;8.246;2023-04-06T08:52:59;8.50;99.90
10702;DHT22;5402;50.004;8.246;2023-04-06T08:55:27;8.70;99.90
10702;DHT22;5402;50.004;8.246;2023-04-06T08:57:55;8.70;99.90
10702;DHT22;5402;50.004;8.246;2023-04-06T09:00:22;8.70;99.90
10702;DHT22;5402;50.004;8.246;2023-04-06T09:02:49;8.90;99.90
10702;DHT22;5402;50.004;8.246;2023-04-06T09:05:17;9.00;99.90
10702;DHT22;5402;50.004;8.246;2023-04-06T09:07:46;9.20;99.90
10702;DHT22;5402;50.004;8.246;2023-04-06T09:10:13;9.30;99.90
10702;DHT22;5402;50.004;8.246;2023-04-06T09:12:40;9.60;99.90
10702;DHT22;5402;50.004;8.246;2023-04-06T09:15:18;9.80;99.90
10702;DHT22;5402;50.004;8.246;2023-04-06T09:17:45;10.20;99.90
10702;DHT22;5402;50.004;8.246;2023-04-06T09:20:12;10.40;99.90
10702;DHT22;5402;50.004;8.246;2023-04-06T09:22:39;10.60;99.70
10702;DHT22;5402;50.004;8.246;2023-04-06T09:25:08;10.30;99.90
10702;DHT22;5402;50.004;8.246;2023-04-06T09:27:37;10.40;99.90
10702;DHT22;5402;50.004;8.246;2023-04-06T09:30:06;10.20;99.90
10702;DHT22;5402;50.004;8.246;2023-04-06T09:32:43;10.10;99.90
10702;DHT22;5402;50.004;8.246;2023-04-06T09:35:11;10.50;99.90
10702;DHT22;5402;50.004;8.246;2023-04-06T09:37:39;10.50;99.20
10702;DHT22;5402;50.004;8.246;2023-04-06T09:40:08;10.60;99.20
10702;DHT22;5402;50.004;8.246;2023-04-06T09:42:35;10.90;99.80
10702;DHT22;5402;50.004;8.246;2023-04-06T09:45:03;11.00;99.80
10702;DHT22;5402;50.004;8.246;2023-04-06T09:47:30;11.10;98.90
10702;DHT22;5402;50.004;8.246;2023-04-06T09:49:59;11.10;99.30
10702;DHT22;5402;50.004;8.246;2023-04-06T09:52:27;11.20;99.60
10702;DHT22;5402;50.004;8.246;2023-04-06T09:55:01;11.20;98.60
10702;DHT22;5402;50.004;8.246;2023-04-06T09:57:37;11.00;99.10
10702;DHT22;5402;50.004;8.246;2023-04-06T10:00:11;10.90;99.70
10702;DHT22;5402;50.004;8.246;2023-04-06T10:02:48;11.20;99.50
10702;DHT22;5402;50.004;8.246;2023-04-06T10:05:20;11.30;99.90
10702;DHT22;5402;50.004;8.246;2023-04-06T10:07:48;11.50;99.80
10702;DHT22;5402;50.004;8.246;2023-04-06T10:10:16;11.50;99.60
10702;DHT22;5402;50.004;8.246;2023-04-06T10:12:45;11.40;99.30
10702;DHT22;5402;50.004;8.246;2023-04-06T10:15:14;11.50;99.20
10702;DHT22;5402;50.004;8.246;2023-04-06T10:17:41;11.50;99.90
10702;DHT22;5402;50.004;8.246;2023-04-06T10:20:11;11.60;99.80
10702;DHT22;5402;50.004;8.246;2023-04-06T10:22:43;11.90;99.90
10702;DHT22;5402;50.004;8.246;2023-04-06T10:25:16;12.10;99.00
10702;DHT22;5402;50.004;8.246;2023-04-06T10:27:44;12.20;99.20
10702;DHT22;5402;50.004;8.246;2023-04-06T10:30:11;11.90;99.30
10702;DHT22;5402;50.004;8.246;2023-04-06T10:32:44;12.20;99.90
10702;DHT22;5402;50.004;8.246;2023-04-06T10:35:12;12.30;99.60
10702;DHT22;5402;50.004;8.246;2023-04-06T10:37:50;12.20;99.90
10702;DHT22;5402;50.004;8.246;2023-04-06T10:40:19;12.40;99.90
10702;DHT22;5402;50.004;8.246;2023-04-06T10:42:49;12.10;99.60
10702;DHT22;5402;50.004;8.246;2023-04-06T10:45:19;12.10;98.80
10702;DHT22;5402;50.004;8.246;2023-04-06T10:47:46;12.10;99.30
10702;DHT22;5402;50.004;8.246;2023-04-06T10:50:15;12.30;99.20
10702;DHT22;5402;50.004;8.246;2023-04-06T10:52:41;12.40;99.90
10702;DHT22;5402;50.004;8.246;2023-04-06T10:55:10;12.60;99.40
10702;DHT22;5402;50.004;8.246;2023-04-06T10:57:38;12.80;99.70
10702;DHT22;5402;50.004;8.246;2023-04-06T11:00:07;12.70;98.80
10702;DHT22;5402;50.004;8.246;2023-04-06T11:02:34;12.70;98.20
10702;DHT22;5402;50.004;8.246;2023-04-06T11:05:01;12.80;99.20
10702;DHT22;5402;50.004;8.246;2023-04-06T11:07:28;12.70;99.10
10702;DHT22;5402;50.004;8.246;2023-04-06T11:09:56;12.60;98.60
10702;DHT22;5402;50.004;8.246;2023-04-06T11:12:23;12.50;98.40
10702;DHT22;5402;50.004;8.246;2023-04-06T11:14:54;12.50;98.20
10702;DHT22;5402;50.004;8.246;2023-04-06T11:17:27;12.70;98.40
10702;DHT22;5402;50.004;8.246;2023-04-06T11:19:54;12.90;98.20
10702;DHT22;5402;50.004;8.246;2023-04-06T11:22:21;13.00;97.80
10702;DHT22;5402;50.004;8.246;2023-04-06T11:24:48;12.90;98.60
10702;DHT22;5402;50.004;8.246;2023-04-06T11:27:15;12.70;98.20
10702;DHT22;5402;50.004;8.246;2023-04-06T11:29:42;12.60;99.40
10702;DHT22;5402;50.004;8.246;2023-04-06T11:32:11;12.90;98.30
10702;DHT22;5402;50.004;8.246;2023-04-06T11:34:48;13.00;98.60
10702;DHT22;5402;50.004;8.246;2023-04-06T11:37:15;13.30;98.90
10702;DHT22;5402;50.004;8.246;2023-04-06T11:39:46;13.40;97.50
10702;DHT22;5402;50.004;8.246;2023-04-06T11:42:13;13.40;97.20
10702;DHT22;5402;50.004;8.246;2023-04-06T11:44:49;13.70;97.40
10702;DHT22;5402;50.004;8.246;2023-04-06T11:47:16;13.90;98.20
10702;DHT22;5402;50.004;8.246;2023-04-06T11:49:44;14.10;96.10
10702;DHT22;5402;50.004;8.246;2023-04-06T11:52:16;13.90;96.90
10702;DHT22;5402;50.004;8.246;2023-04-06T11:54:43;14.30;96.80
10702;DHT22;5402;50.004;8.246;2023-04-06T11:57:10;14.20;96.40
10702;DHT22;5402;50.004;8.246;2023-04-06T11:59:37;14.30;96.60
10702;DHT22;5402;50.004;8.246;2023-04-06T12:02:04;14.40;95.50
10702;DHT22;5402;50.004;8.246;2023-04-06T12:04:31;14.60;96.00
10702;DHT22;5402;50.004;8.246;2023-04-06T12:06:58;14.50;95.90
10702;DHT22;5402;50.004;8.246;2023-04-06T12:09:26;14.40;96.00
10702;DHT22;5402;50.004;8.246;2023-04-06T12:11:53;14.40;95.50
10702;DHT22;5402;50.004;8.246;2023-04-06T12:14:21;14.00;96.30
10702;DHT22;5402;50.004;8.246;2023-04-06T12:16:48;14.10;96.30
10702;DHT22;5402;50.004;8.246;2023-04-06T12:19:14;14.20;94.90
10702;DHT22;5402;50.004;8.246;2023-04-06T12:21:41;14.20;95.90
10702;DHT22;5402;50.004;8.246;2023-04-06T12:24:08;14.30;95.20
10702;DHT22;5402;50.004;8.246;2023-04-06T12:26:36;14.40;94.40
10702;DHT22;5402;50.004;8.246;2023-04-06T12:29:03;14.40;94.70
10702;DHT22;5402;50.004;8.246;2023-04-06T12:31:33;14.40;93.90
10702;DHT22;5402;50.004;8.246;2023-04-06T12:34:00;14.50;94.60
10702;DHT22;5402;50.004;8.246;2023-04-06T12:36:28;14.50;94.10
10702;DHT22;5402;50.004;8.246;2023-04-06T12:38:56;14.30;93.70
10702;DHT22;5402;50.004;8.246;2023-04-06T12:41:23;14.10;94.00
10702;DHT22;5402;50.004;8.246;2023-04-06T12:43:51;14.30;94.70
10702;DHT22;5402;50.004;8.246;2023-04-06T12:46:18;14.40;94.60
10702;DHT22;5402;50.004;8.246;2023-04-06T12:48:45;14.50;94.40
10702;DHT22;5402;50.004;8.246;2023-04-06T12:51:12;14.50;94.90
10702;DHT22;5402;50.004;8.246;2023-04-06T12:53:39;14.60;94.30
10702;DHT22;5402;50.004;8.246;2023-04-06T12:56:12;14.70;94.30
10702;DHT22;5402;50.004;8.246;2023-04-06T12:58:38;14.80;93.70
10702;DHT22;5402;50.004;8.246;2023-04-06T13:01:08;14.70;92.60
10702;DHT22;5402;50.004;8.246;2023-04-06T13:03:36;14.60;92.70
10702;DHT22;5402;50.004;8.246;2023-04-06T13:06:03;14.60;93.60
10702;DHT22;5402;50.004;8.246;2023-04-06T13:08:29;14.80;93.30
10702;DHT22;5402;50.004;8.246;2023-04-06T13:10:56;14.60;93.40
10702;DHT22;5402;50.004;8.246;2023-04-06T13:13:24;14.60;91.90
10702;DHT22;5402;50.004;8.246;2023-04-06T13:15:51;14.50;93.20
10702;DHT22;5402;50.004;8.246;2023-04-06T13:18:19;14.40;92.40
10702;DHT22;5402;50.004;8.246;2023-04-06T13:20:46;14.40;92.40
10702;DHT22;5402;50.004;8.246;2023-04-06T13:23:13;14.50;95.40
10702;DHT22;5402;50.004;8.246;2023-04-06T13:25:40;14.30;93.30
10702;DHT22;5402;50.004;8.246;2023-04-06T13:28:07;14.40;93.00
10702;DHT22;5402;50.004;8.246;2023-04-06T13:30:34;14.20;94.10
10702;DHT22;5402;50.004;8.246;2023-04-06T13:33:03;14.00;93.30
10702;DHT22;5402;50.004;8.246;2023-04-06T13:35:33;13.90;93.20
10702;DHT22;5402;50.004;8.246;2023-04-06T13:38:01;13.90;93.60
10702;DHT22;5402;50.004;8.246;2023-04-06T13:40:27;14.10;93.20
10702;DHT22;5402;50.004;8.246;2023-04-06T13:42:54;14.20;93.00
10702;DHT22;5402;50.004;8.246;2023-04-06T13:45:21;14.20;93.20
10702;DHT22;5402;50.004;8.246;2023-04-06T13:47:47;14.20;93.90
10702;DHT22;5402;50.004;8.246;2023-04-06T13:50:15;14.20;92.30
10702;DHT22;5402;50.004;8.246;2023-04-06T13:52:43;14.20;91.90
10702;DHT22;5402;50.004;8.246;2023-04-06T13:55:09;13.90;91.60
10702;DHT22;5402;50.004;8.246;2023-04-06T13:57:37;13.80;93.10
10702;DHT22;5402;50.004;8.246;2023-04-06T14:00:05;13.90;92.50
10702;DHT22;5402;50.004;8.246;2023-04-06T14:02:32;14.00;92.20
10702;DHT22;5402;50.004;8.246;2023-04-06T14:04:59;14.10;92.40
10702;DHT22;5402;50.004;8.246;2023-04-06T14:07:26;14.00;92.30
10702;DHT22;5402;50.004;8.246;2023-04-06T14:09:54;13.90;91.60
10702;DHT22;5402;50.004;8.246;2023-04-06T14:12:20;13.90;91.60
10702;DHT22;5402;50.004;8.246;2023-04-06T14:14:47;13.90;92.20
10702;DHT22;5402;50.004;8.246;2023-04-06T14:17:14;13.90;90.90
10702;DHT22;5402;50.004;8.246;2023-04-06T14:19:41;13.90;92.30
10702;DHT22;5402;50.004;8.246;2023-04-06T14:22:08;13.80;91.60
10702;DHT22;5402;50.004;8.246;2023-04-06T14:24:35;13.80;91.20
10702;DHT22;5402;50.004;8.246;2023-04-06T14:27:04;13.80;90.20
10702;DHT22;5402;50.004;8.246;2023-04-06T14:29:31;13.70;90.60
10702;DHT22;5402;50.004;8.246;2023-04-06T14:31:57;13.70;90.70
10702;DHT22;5402;50.004;8.246;2023-04-06T14:34:26;13.70;90.00
10702;DHT22;5402;50.004;8.246;2023-04-06T14:36:52;13.60;90.20
10702;DHT22;5402;50.004;8.246;2023-04-06T14:39:19;13.60;91.20
10702;DHT22;5402;50.004;8.246;2023-04-06T14:41:46;13.60;91.20
10702;DHT22;5402;50.004;8.246;2023-04-06T14:44:15;13.60;90.50
10702;DHT22;5402;50.004;8.246;2023-04-06T14:46:42;13.70;91.60
10702;DHT22;5402;50.004;8.246;2023-04-06T14:49:09;13.60;91.50
10702;DHT22;5402;50.004;8.246;2023-04-06T14:51:36;13.60;91.00
10702;DHT22;5402;50.004;8.246;2023-04-06T14:54:03;13.50;92.50
10702;DHT22;5402;50.004;8.246;2023-04-06T14:56:29;13.50;91.20
10702;DHT22;5402;50.004;8.246;2023-04-06T14:58:58;13.40;91.00
10702;DHT22;5402;50.004;8.246;2023-04-06T15:01:28;13.40;92.60
10702;DHT22;5402;50.004;8.246;2023-04-06T15:03:55;13.40;92.10
10702;DHT22;5402;50.004;8.246;2023-04-06T15:06:22;13.40;92.20
10702;DHT22;5402;50.004;8.246;2023-04-06T15:08:49;13.30;92.20
10702;DHT22;5402;50.004;8.246;2023-04-06T15:11:16;13.30;93.00
10702;DHT22;5402;50.004;8.246;2023-04-06T15:13:42;13.30;92.00
10702;DHT22;5402;50.004;8.246;2023-04-06T15:16:09;13.30;92.20
10702;DHT22;5402;50.004;8.246;2023-04-06T15:18:37;13.20;92.00
10702;DHT22;5402;50.004;8.246;2023-04-06T15:21:04;13.10;91.90
10702;DHT22;5402;50.004;8.246;2023-04-06T15:23:31;13.20;92.40
10702;DHT22;5402;50.004;8.246;2023-04-06T15:25:59;13.20;92.70
10702;DHT22;5402;50.004;8.246;2023-04-06T15:28:26;13.10;92.20
10702;DHT22;5402;50.004;8.246;2023-04-06T15:30:54;13.10;92.40
10702;DHT22;5402;50.004;8.246;2023-04-06T15:33:21;13.10;93.20
10702;DHT22;5402;50.004;8.246;2023-04-06T15:35:49;13.00;92.40
10702;DHT22;5402;50.004;8.246;2023-04-06T15:38:16;13.00;91.70
10702;DHT22;5402;50.004;8.246;2023-04-06T15:40:44;12.90;92.00
10702;DHT22;5402;50.004;8.246;2023-04-06T15:43:11;13.00;92.90
10702;DHT22;5402;50.004;8.246;2023-04-06T15:45:38;12.90;93.50
10702;DHT22;5402;50.004;8.246;2023-04-06T15:48:06;12.80;93.00
10702;DHT22;5402;50.004;8.246;2023-04-06T15:50:33;12.70;93.90
10702;DHT22;5402;50.004;8.246;2023-04-06T15:53:02;12.70;93.20
10702;DHT22;5402;50.004;8.246;2023-04-06T15:55:30;12.70;93.00